sensor_id;sensor_type;location;lat;lon;timestamp;temperature;humidity
4429;DHT22;2227;47.810;8.810;2023-03-21T04:46:44;7.20;99.90
4429;DHT22;2227;47.810;8.810;2023-03-21T04:49:11;7.10;99.90
4429;DHT22;2227;47.810;8.810;2023-03-21T04:51:38;6.80;99.90
4429;DHT22;2227;47.810;8.810;2023-03-21T04:54:05;6.80;99.90
4429;DHT22;2227;47.810;8.810;2023-03-21T04:56:32;6.80;99.90
4429;DHT22;2227;47.810;8.810;2023-03-21T04:59:05;6.90;99.90
4429;DHT22;2227;47.810;8.810;2023-03-21T05:01:32;7.00;99.90
4429;DHT22;2227;47.810;8.810;2023-03-21T05:04:00;7.10;99.90
4429;DHT22;2227;47.810;8.810;2023-03-21T05:06:27;7.10;99.90
4429;DHT22;2227;47.810;8.810;2023-03-21T05:08:55;7.20;99.90
4429;DHT22;2227;47.810;8.810;2023-03-21T05:11:26;7.10;99.90
4429;DHT22;2227;47.810;8.810;2023-03-21T05:13:53;7.10;99.90
4429;DHT22;2227;47.810;8.810;2023-03-21T05:16:20;7.10;99.90
4429;DHT22;2227;47.810;8.810;2023-03-21T05:18:54;7.00;99.90
4429;DHT22;2227;47.810;8.810;2023-03-21T05:21:21;6.90;99.90
4429;DHT22;2227;47.810;8.810;2023-03-21T05:23:48;6.90;99.90
4429;DHT22;2227;47.810;8.810;2023-03-21T05:26:21;7.00;99.90
4429;DHT22;2227;47.810;8.810;2023-03-21T05:28:49;7.00;99.90
4429;DHT22;2227;47.810;8.810;2023-03-21T05:31:17;7.00;99.90
4429;DHT22;2227;47.810;8.810;2023-03-21T05:33:44;6.90;99.90
4429;DHT22;2227;47.810;8.810;2023-03-21T05:36:12;7.00;99.90
4429;DHT22;2227;47.810;8.810;2023-03-21T05:38:39;6.90;99.90
4429;DHT22;2227;47.810;8.810;2023-03-21T05:41:15;6.90;99.90
4429;DHT22;2227;47.810;8.810;2023-03-21T05:43:44;6.90;99.90
4429;DHT22;2227;47.810;8.810;2023-03-21T05:46:11;6.90;99.90
4429;DHT22;2227;47.810;8.810;2023-03-21T05:48:38;6.90;99.90
4429;DHT22;2227;47.810;8.810;2023-03-21T05:51:05;6.90;99.90
4429;DHT22;2227;47.810;8.810;2023-03-21T05:53:31;6.90;99.90
4429;DHT22;2227;47.810;8.810;2023-03-21T05:55:58;7.00;99.90
4429;DHT22;2227;47.810;8.810;2023-03-21T05:58:25;7.00;99.90
4429;DHT22;2227;47.810;8.810;2023-03-21T06:00:51;7.00;99.90
4429;DHT22;2227;47.810;8.810;2023-03-21T06:03:18;6.90;99.90
4429;DHT22;2227;47.810;8.810;2023-03-21T06:05:45;6.90;99.90
4429;DHT22;2227;47.810;8.810;2023-03-21T06:08:11;6.90;99.90
4429;DHT22;2227;47.810;8.810;2023-03-21T06:10:38;6.90;99.90
4429;DHT22;2227;47.810;8.810;2023-03-21T06:13:05;7.00;99.90
4429;DHT22;2227;47.810;8.810;2023-03-21T06:15:31;7.10;99.90
4429;DHT22;2227;47.810;8.810;2023-03-21T06:17:58;7.10;99.90
4429;DHT22;2227;47.810;8.810;2023-03-21T06:20:25;7.20;99.90
4429;DHT22;2227;47.810;8.810;2023-03-21T06:22:51;7.10;99.90
4429;DHT22;2227;47.810;8.810;2023-03-21T06:25:18;7.20;99.90
4429;DHT22;2227;47.810;8.810;2023-03-21T06:27:45;7.20;99.90
4429;DHT22;2227;47.810;8.810;2023-03-21T06:30:12;7.30;99.90
4429;DHT22;2227;47.810;8.810;2023-03-21T06:32:39;7.40;99.90
4429;DHT22;2227;47.810;8.810;2023-03-21T06:35:06;7.50;99.90
4429;DHT22;2227;47.810;8.810;2023-03-21T06:37:33;7.70;99.90
4429;DHT22;2227;47.810;8.810;2023-03-21T06:39:59;7.90;99.90
4429;DHT22;2227;47.810;8.810;2023-03-21T06:42:26;8.10;99.90
4429;DHT22;2227;47.810;8.810;2023-03-21T06:44:53;8.20;99.90
4429;DHT22;2227;47.810;8.810;2023-03-21T06:47:19;8.30;99.90
4429;DHT22;2227;47.810;8.810;2023-03-21T06:49:46;8.50;99.90
4429;DHT22;2227;47.810;8.810;2023-03-21T06:52:13;8.60;99.90
4429;DHT22;2227;47.810;8.810;2023-03-21T06:54:39;8.70;99.90
4429;DHT22;2227;47.810;8.810;2023-03-21T06:57:06;8.80;99.90
4429;DHT22;2227;47.810;8.810;2023-03-21T06:59:33;8.90;99.90
4429;DHT22;2227;47.810;8.810;2023-03-21T07:01:59;9.00;99.90
4429;DHT22;2227;47.810;8.810;2023-03-21T07:04:26;9.20;99.90
4429;DHT22;2227;47.810;8.810;2023-03-21T07:06:53;9.10;99.90
4429;DHT22;2227;47.810;8.810;2023-03-21T07:09:20;9.10;99.90
4429;DHT22;2227;47.810;8.810;2023-03-21T07:11:50;9.30;99.90
4429;DHT22;2227;47.810;8.810;2023-03-21T07:14:19;9.60;99.90
4429;DHT22;2227;47.810;8.810;2023-03-21T07:16:45;9.80;99.90
4429;DHT22;2227;47.810;8.810;2023-03-21T07:19:12;9.90;99.90
4429;DHT22;2227;47.810;8.810;2023-03-21T07:21:39;10.10;99.90
4429;DHT22;2227;47.810;8.810;2023-03-21T07:24:06;10.20;99.90
4429;DHT22;2227;47.810;8.810;2023-03-21T07:26:33;10.40;99.90
4429;DHT22;2227;47.810;8.810;2023-03-21T07:28:59;10.70;99.90
4429;DHT22;2227;47.810;8.810;2023-03-21T07:31:26;10.90;99.90
4429;DHT22;2227;47.810;8.810;2023-03-21T07:33:53;11.00;99.90
4429;DHT22;2227;47.810;8.810;2023-03-21T07:36:19;11.20;99.90
4429;DHT22;2227;47.810;8.810;2023-03-21T07:38:46;11.30;99.90
4429;DHT22;2227;47.810;8.810;2023-03-21T07:41:13;11.40;99.90
4429;DHT22;2227;47.810;8.810;2023-03-21T07:43:45;11.40;99.90
4429;DHT22;2227;47.810;8.810;2023-03-21T07:46:11;11.70;99.90
4429;DHT22;2227;47.810;8.810;2023-03-21T07:48:38;11.80;99.90
4429;DHT22;2227;47.810;8.810;2023-03-21T07:51:05;11.90;99.90
4429;DHT22;2227;47.810;8.810;2023-03-21T07:53:32;12.10;99.90
4429;DHT22;2227;47.810;8.810;2023-03-21T07:55:59;12.30;99.90
4429;DHT22;2227;47.810;8.810;2023-03-21T07:58:25;12.30;99.90
4429;DHT22;2227;47.810;8.810;2023-03-21T08:00:54;12.60;99.90
4429;DHT22;2227;47.810;8.810;2023-03-21T08:03:22;13.20;99.90
4429;DHT22;2227;47.810;8.810;2023-03-21T08:05:49;13.80;99.90
4429;DHT22;2227;47.810;8.810;2023-03-21T08:08:16;14.50;99.90
4429;DHT22;2227;47.810;8.810;2023-03-21T08:10:43;15.30;99.90
4429;DHT22;2227;47.810;8.810;2023-03-21T08:13:10;16.10;99.90
4429;DHT22;2227;47.810;8.810;2023-03-21T08:15:37;17.00;99.90
4429;DHT22;2227;47.810;8.810;2023-03-21T08:18:08;18.00;99.90
4429;DHT22;2227;47.810;8.810;2023-03-21T08:20:35;18.90;98.40
4429;DHT22;2227;47.810;8.810;2023-03-21T08:23:03;19.70;95.30
4429;DHT22;2227;47.810;8.810;2023-03-21T08:25:29;20.20;93.10
4429;DHT22;2227;47.810;8.810;2023-03-21T08:27:56;21.10;91.00
4429;DHT22;2227;47.810;8.810;2023-03-21T08:30:26;22.00;87.50
4429;DHT22;2227;47.810;8.810;2023-03-21T08:32:58;22.70;81.80
4429;DHT22;2227;47.810;8.810;2023-03-21T08:35:27;23.20;77.90
4429;DHT22;2227;47.810;8.810;2023-03-21T08:37:54;23.60;74.80
4429;DHT22;2227;47.810;8.810;2023-03-21T08:40:21;24.30;71.50
4429;DHT22;2227;47.810;8.810;2023-03-21T08:42:48;24.70;69.00
4429;DHT22;2227;47.810;8.810;2023-03-21T08:45:16;25.20;66.00
4429;DHT22;2227;47.810;8.810;2023-03-21T08:47:43;25.70;64.10
4429;DHT22;2227;47.810;8.810;2023-03-21T08:50:12;26.30;60.70
4429;DHT22;2227;47.810;8.810;2023-03-21T08:52:40;26.30;60.00
4429;DHT22;2227;47.810;8.810;2023-03-21T08:55:07;26.70;58.10
4429;DHT22;2227;47.810;8.810;2023-03-21T08:57:34;26.30;58.70
4429;DHT22;2227;47.810;8.810;2023-03-21T09:00:03;25.30;59.70
4429;DHT22;2227;47.810;8.810;2023-03-21T09:02:37;24.40;62.10
4429;DHT22;2227;47.810;8.810;2023-03-21T09:05:04;24.70;61.30
4429;DHT22;2227;47.810;8.810;2023-03-21T09:07:35;24.40;60.70
4429;DHT22;2227;47.810;8.810;2023-03-21T09:10:04;24.10;62.40
4429;DHT22;2227;47.810;8.810;2023-03-21T09:12:47;23.80;62.90
4429;DHT22;2227;47.810;8.810;2023-03-21T09:15:14;23.50;62.00
4429;DHT22;2227;47.810;8.810;2023-03-21T09:17:40;22.80;63.50
4429;DHT22;2227;47.810;8.810;2023-03-21T09:20:14;21.30;67.90
4429;DHT22;2227;47.810;8.810;2023-03-21T09:22:48;19.80;72.20
4429;DHT22;2227;47.810;8.810;2023-03-21T09:25:15;18.90;74.80
4429;DHT22;2227;47.810;8.810;2023-03-21T09:27:43;18.20;76.20
4429;DHT22;2227;47.810;8.810;2023-03-21T09:30:15;17.70;78.70
4429;DHT22;2227;47.810;8.810;2023-03-21T09:32:43;17.50;80.50
4429;DHT22;2227;47.810;8.810;2023-03-21T09:35:17;17.50;81.40
4429;DHT22;2227;47.810;8.810;2023-03-21T09:37:45;17.80;81.70
4429;DHT22;2227;47.810;8.810;2023-03-21T09:46:22;18.10;81.60
4429;DHT22;2227;47.810;8.810;2023-03-21T09:49:03;18.50;80.40
4429;DHT22;2227;47.810;8.810;2023-03-21T09:51:44;19.30;79.00
4429;DHT22;2227;47.810;8.810;2023-03-21T09:54:18;19.20;78.70
4429;DHT22;2227;47.810;8.810;2023-03-21T09:56:48;19.70;77.50
4429;DHT22;2227;47.810;8.810;2023-03-21T09:59:36;20.10;75.40
4429;DHT22;2227;47.810;8.810;2023-03-21T10:02:20;20.60;74.30
4429;DHT22;2227;47.810;8.810;2023-03-21T10:05:03;20.10;73.60
4429;DHT22;2227;47.810;8.810;2023-03-21T10:07:40;20.10;75.20
4429;DHT22;2227;47.810;8.810;2023-03-21T10:10:15;19.70;75.20
4429;DHT22;2227;47.810;8.810;2023-03-21T10:12:44;19.50;76.50
4429;DHT22;2227;47.810;8.810;2023-03-21T10:15:18;19.00;77.80
4429;DHT22;2227;47.810;8.810;2023-03-21T10:18:02;18.70;78.90
4429;DHT22;2227;47.810;8.810;2023-03-21T10:20:33;18.50;78.90
4429;DHT22;2227;47.810;8.810;2023-03-21T10:23:03;18.10;79.70
4429;DHT22;2227;47.810;8.810;2023-03-21T10:25:37;17.80;80.90
4429;DHT22;2227;47.810;8.810;2023-03-21T10:28:12;17.40;81.90
4429;DHT22;2227;47.810;8.810;2023-03-21T10:31:05;17.10;82.70
4429;DHT22;2227;47.810;8.810;2023-03-21T10:33:35;16.80;84.50
4429;DHT22;2227;47.810;8.810;2023-03-21T10:36:13;17.00;85.20
4429;DHT22;2227;47.810;8.810;2023-03-21T10:41:40;16.80;86.30
4429;DHT22;2227;47.810;8.810;2023-03-21T10:44:13;17.20;85.40
4429;DHT22;2227;47.810;8.810;2023-03-21T10:46:57;17.20;85.10
4429;DHT22;2227;47.810;8.810;2023-03-21T10:49:24;17.20;85.20
4429;DHT22;2227;47.810;8.810;2023-03-21T10:51:56;17.00;86.20
4429;DHT22;2227;47.810;8.810;2023-03-21T10:54:28;17.20;86.60
4429;DHT22;2227;47.810;8.810;2023-03-21T11:02:06;17.20;86.10
4429;DHT22;2227;47.810;8.810;2023-03-21T11:04:42;17.60;85.10
4429;DHT22;2227;47.810;8.810;2023-03-21T11:07:12;17.00;87.00
4429;DHT22;2227;47.810;8.810;2023-03-21T11:09:46;17.40;86.40
4429;DHT22;2227;47.810;8.810;2023-03-21T11:12:16;17.70;84.90
4429;DHT22;2227;47.810;8.810;2023-03-21T11:14:47;17.30;86.30
4429;DHT22;2227;47.810;8.810;2023-03-21T11:20:07;16.80;86.60
4429;DHT22;2227;47.810;8.810;2023-03-21T11:22:39;16.60;88.20
4429;DHT22;2227;47.810;8.810;2023-03-21T11:25:10;16.70;88.00
4429;DHT22;2227;47.810;8.810;2023-03-21T11:27:53;17.10;87.70
4429;DHT22;2227;47.810;8.810;2023-03-21T11:30:23;17.10;85.30
4429;DHT22;2227;47.810;8.810;2023-03-21T11:32:53;17.10;85.70
4429;DHT22;2227;47.810;8.810;2023-03-21T11:35:23;17.20;85.70
4429;DHT22;2227;47.810;8.810;2023-03-21T11:37:53;17.50;84.50
4429;DHT22;2227;47.810;8.810;2023-03-21T11:40:24;17.50;85.30
4429;DHT22;2227;47.810;8.810;2023-03-21T11:43:05;17.80;85.10
4429;DHT22;2227;47.810;8.810;2023-03-21T11:46:23;17.80;85.00
4429;DHT22;2227;47.810;8.810;2023-03-21T11:48:49;17.50;85.00
4429;DHT22;2227;47.810;8.810;2023-03-21T11:51:40;17.60;85.10
4429;DHT22;2227;47.810;8.810;2023-03-21T11:57:05;17.60;85.70
4429;DHT22;2227;47.810;8.810;2023-03-21T11:59:38;17.80;84.00
4429;DHT22;2227;47.810;8.810;2023-03-21T12:02:39;17.30;85.70
4429;DHT22;2227;47.810;8.810;2023-03-21T12:05:30;17.50;86.20
4429;DHT22;2227;47.810;8.810;2023-03-21T12:11:35;17.70;85.70
4429;DHT22;2227;47.810;8.810;2023-03-21T12:13:46;17.60;85.30
4429;DHT22;2227;47.810;8.810;2023-03-21T12:16:57;17.70;85.10
4429;DHT22;2227;47.810;8.810;2023-03-21T12:24:55;17.40;86.00
4429;DHT22;2227;47.810;8.810;2023-03-21T12:30:12;18.10;83.10
4429;DHT22;2227;47.810;8.810;2023-03-21T12:33:03;18.20;84.00
4429;DHT22;2227;47.810;8.810;2023-03-21T12:36:01;18.20;83.00
4429;DHT22;2227;47.810;8.810;2023-03-21T12:44:22;18.50;82.20
4429;DHT22;2227;47.810;8.810;2023-03-21T12:47:00;18.50;81.80
4429;DHT22;2227;47.810;8.810;2023-03-21T12:49:34;18.50;82.00
4429;DHT22;2227;47.810;8.810;2023-03-21T12:52:09;18.70;79.80
4429;DHT22;2227;47.810;8.810;2023-03-21T12:54:47;19.00;80.20
4429;DHT22;2227;47.810;8.810;2023-03-21T12:57:34;19.20;79.20
4429;DHT22;2227;47.810;8.810;2023-03-21T13:00:19;18.60;80.00
4429;DHT22;2227;47.810;8.810;2023-03-21T13:02:52;18.20;82.20
4429;DHT22;2227;47.810;8.810;2023-03-21T13:05:42;18.20;82.30
4429;DHT22;2227;47.810;8.810;2023-03-21T13:08:15;18.30;79.60
4429;DHT22;2227;47.810;8.810;2023-03-21T13:10:44;17.90;82.00
4429;DHT22;2227;47.810;8.810;2023-03-21T13:13:34;17.90;82.30
4429;DHT22;2227;47.810;8.810;2023-03-21T13:16:16;17.60;83.00
4429;DHT22;2227;47.810;8.810;2023-03-21T13:19:12;18.20;82.20
4429;DHT22;2227;47.810;8.810;2023-03-21T13:21:50;19.00;80.00
4429;DHT22;2227;47.810;8.810;2023-03-21T13:27:12;18.90;79.70
4429;DHT22;2227;47.810;8.810;2023-03-21T13:29:46;18.70;80.30
4429;DHT22;2227;47.810;8.810;2023-03-21T13:32:34;19.00;79.80
4429;DHT22;2227;47.810;8.810;2023-03-21T13:37:39;18.70;80.30
4429;DHT22;2227;47.810;8.810;2023-03-21T13:40:24;18.80;80.40
4429;DHT22;2227;47.810;8.810;2023-03-21T13:42:58;18.70;80.80
4429;DHT22;2227;47.810;8.810;2023-03-21T13:45:43;18.40;79.80
4429;DHT22;2227;47.810;8.810;2023-03-21T13:48:30;18.40;78.70
4429;DHT22;2227;47.810;8.810;2023-03-21T13:51:02;18.70;78.50
4429;DHT22;2227;47.810;8.810;2023-03-21T13:53:30;18.60;77.90
4429;DHT22;2227;47.810;8.810;2023-03-21T13:56:00;18.40;78.90
4429;DHT22;2227;47.810;8.810;2023-03-21T13:58:36;18.40;79.60
4429;DHT22;2227;47.810;8.810;2023-03-21T14:03:47;18.30;81.00
4429;DHT22;2227;47.810;8.810;2023-03-21T14:06:15;18.80;80.20
4429;DHT22;2227;47.810;8.810;2023-03-21T14:08:45;19.10;79.20
4429;DHT22;2227;47.810;8.810;2023-03-21T14:11:16;19.30;78.80
4429;DHT22;2227;47.810;8.810;2023-03-21T14:13:43;19.10;79.00
4429;DHT22;2227;47.810;8.810;2023-03-21T14:16:18;18.90;78.90
4429;DHT22;2227;47.810;8.810;2023-03-21T14:18:58;19.00;79.10
4429;DHT22;2227;47.810;8.810;2023-03-21T14:21:28;18.50;79.70
4429;DHT22;2227;47.810;8.810;2023-03-21T14:26:25;18.00;79.70
4429;DHT22;2227;47.810;8.810;2023-03-21T14:28:53;17.90;80.90
4429;DHT22;2227;47.810;8.810;2023-03-21T14:31:20;17.90;81.40
4429;DHT22;2227;47.810;8.810;2023-03-21T14:33:50;18.10;80.60
4429;DHT22;2227;47.810;8.810;2023-03-21T14:36:26;17.90;80.80
4429;DHT22;2227;47.810;8.810;2023-03-21T14:39:19;17.60;80.40
4429;DHT22;2227;47.810;8.810;2023-03-21T14:41:51;17.10;82.50
4429;DHT22;2227;47.810;8.810;2023-03-21T14:44:19;17.20;83.10
4429;DHT22;2227;47.810;8.810;2023-03-21T14:47:02;17.20;83.50
4429;DHT22;2227;47.810;8.810;2023-03-21T14:49:31;17.30;83.20
4429;DHT22;2227;47.810;8.810;2023-03-21T14:52:04;17.30;82.60
4429;DHT22;2227;47.810;8.810;2023-03-21T14:54:33;17.10;82.40
4429;DHT22;2227;47.810;8.810;2023-03-21T14:57:02;17.10;83.20
4429;DHT22;2227;47.810;8.810;2023-03-21T14:59:33;17.30;83.10
4429;DHT22;2227;47.810;8.810;2023-03-21T15:02:04;17.30;84.10
4429;DHT22;2227;47.810;8.810;2023-03-21T15:04:37;17.20;84.10
4429;DHT22;2227;47.810;8.810;2023-03-21T15:07:04;17.30;82.90
4429;DHT22;2227;47.810;8.810;2023-03-21T15:09:34;17.30;84.00
4429;DHT22;2227;47.810;8.810;2023-03-21T15:12:06;17.20;84.10
4429;DHT22;2227;47.810;8.810;2023-03-21T15:14:34;17.40;84.10
4429;DHT22;2227;47.810;8.810;2023-03-21T15:17:02;17.30;83.30
4429;DHT22;2227;47.810;8.810;2023-03-21T15:19:33;17.50;83.30
4429;DHT22;2227;47.810;8.810;2023-03-21T15:24:41;17.50;82.60
4429;DHT22;2227;47.810;8.810;2023-03-21T15:27:16;17.50;82.50
4429;DHT22;2227;47.810;8.810;2023-03-21T15:29:45;17.50;82.70
4429;DHT22;2227;47.810;8.810;2023-03-21T15:32:15;17.60;82.20
4429;DHT22;2227;47.810;8.810;2023-03-21T15:34:43;17.70;81.60
4429;DHT22;2227;47.810;8.810;2023-03-21T15:37:32;17.60;81.60
4429;DHT22;2227;47.810;8.810;2023-03-21T15:40:29;17.70;80.60
4429;DHT22;2227;47.810;8.810;2023-03-21T15:43:19;17.60;81.90
4429;DHT22;2227;47.810;8.810;2023-03-21T15:45:55;17.60;80.70
4429;DHT22;2227;47.810;8.810;2023-03-21T15:48:27;17.40;80.30
4429;DHT22;2227;47.810;8.810;2023-03-21T15:51:01;17.30;80.10
4429;DHT22;2227;47.810;8.810;2023-03-21T15:53:32;17.10;80.20
4429;DHT22;2227;47.810;8.810;2023-03-21T15:55:59;17.10;80.80
4429;DHT22;2227;47.810;8.810;2023-03-21T15:58:33;17.30;79.90
4429;DHT22;2227;47.810;8.810;2023-03-21T16:01:04;17.40;79.70
4429;DHT22;2227;47.810;8.810;2023-03-21T16:03:36;17.50;79.60
4429;DHT22;2227;47.810;8.810;2023-03-21T16:08:48;17.50;79.30
4429;DHT22;2227;47.810;8.810;2023-03-21T16:11:23;17.40;79.30
4429;DHT22;2227;47.810;8.810;2023-03-21T16:13:52;17.40;79.10
4429;DHT22;2227;47.810;8.810;2023-03-21T16:16:24;17.30;79.40
4429;DHT22;2227;47.810;8.810;2023-03-21T16:18:53;17.20;79.50
4429;DHT22;2227;47.810;8.810;2023-03-21T16:21:22;17.10;78.80
4429;DHT22;2227;47.810;8.810;2023-03-21T16:23:49;17.20;79.30
4429;DHT22;2227;47.810;8.810;2023-03-21T16:26:20;17.20;78.20
4429;DHT22;2227;47.810;8.810;2023-03-21T16:28:47;17.30;79.20
4429;DHT22;2227;47.810;8.810;2023-03-21T16:31:17;17.30;79.20
4429;DHT22;2227;47.810;8.810;2023-03-21T16:33:45;17.30;79.10
4429;DHT22;2227;47.810;8.810;2023-03-21T16:36:29;17.30;78.80
4429;DHT22;2227;47.810;8.810;2023-03-21T16:38:56;17.30;79.60
4429;DHT22;2227;47.810;8.810;2023-03-21T16:41:25;17.30;81.00
4429;DHT22;2227;47.810;8.810;2023-03-21T16:43:52;17.20;79.60
4429;DHT22;2227;47.810;8.810;2023-03-21T16:46:24;17.10;80.40
4429;DHT22;2227;47.810;8.810;2023-03-21T16:48:56;17.10;81.20
4429;DHT22;2227;47.810;8.810;2023-03-21T16:51:26;17.00;81.70
4429;DHT22;2227;47.810;8.810;2023-03-21T16:53:56;16.80;81.60
4429;DHT22;2227;47.810;8.810;2023-03-21T16:56:29;16.70;81.00
4429;DHT22;2227;47.810;8.810;2023-03-21T16:58:57;16.50;81.00
4429;DHT22;2227;47.810;8.810;2023-03-21T17:01:24;16.60;82.80
4429;DHT22;2227;47.810;8.810;2023-03-21T17:03:51;16.70;83.60
4429;DHT22;2227;47.810;8.810;2023-03-21T17:06:21;16.50;84.80
4429;DHT22;2227;47.810;8.810;2023-03-21T17:08:50;16.40;84.20
4429;DHT22;2227;47.810;8.810;2023-03-21T17:11:19;16.10;85.60
4429;DHT22;2227;47.810;8.810;2023-03-21T17:13:47;16.00;85.40
4429;DHT22;2227;47.810;8.810;2023-03-21T17:16:16;15.80;86.60
4429;DHT22;2227;47.810;8.810;2023-03-21T17:18:43;15.70;88.50
4429;DHT22;2227;47.810;8.810;2023-03-21T17:21:24;15.70;88.90
4429;DHT22;2227;47.810;8.810;2023-03-21T17:23:52;15.70;87.30
4429;DHT22;2227;47.810;8.810;2023-03-21T17:26:26;15.60;88.30
4429;DHT22;2227;47.810;8.810;2023-03-21T17:28:53;15.60;88.50
4429;DHT22;2227;47.810;8.810;2023-03-21T17:31:23;15.40;90.10
4429;DHT22;2227;47.810;8.810;2023-03-21T17:33:50;15.30;90.40
4429;DHT22;2227;47.810;8.810;2023-03-21T17:36:27;15.20;90.70
4429;DHT22;2227;47.810;8.810;2023-03-21T17:38:55;15.00;90.70
4429;DHT22;2227;47.810;8.810;2023-03-21T17:41:23;14.80;90.90
4429;DHT22;2227;47.810;8.810;2023-03-21T17:43:50;14.70;91.50
4429;DHT22;2227;47.810;8.810;2023-03-21T17:46:21;14.60;91.70
4429;DHT22;2227;47.810;8.810;2023-03-21T17:48:48;14.50;91.20
4429;DHT22;2227;47.810;8.810;2023-03-21T17:51:16;14.60;91.40
4429;DHT22;2227;47.810;8.810;2023-03-21T17:53:44;14.60;91.80
4429;DHT22;2227;47.810;8.810;2023-03-21T17:56:30;14.60;91.90
4429;DHT22;2227;47.810;8.810;2023-03-21T17:59:03;14.50;92.10
4429;DHT22;2227;47.810;8.810;2023-03-21T18:01:30;14.40;92.10
4429;DHT22;2227;47.810;8.810;2023-03-21T18:03:58;14.30;92.30
4429;DHT22;2227;47.810;8.810;2023-03-21T18:06:27;14.40;92.40
4429;DHT22;2227;47.810;8.810;2023-03-21T18:08:54;14.40;92.40
4429;DHT22;2227;47.810;8.810;2023-03-21T18:11:23;14.40;92.60
4429;DHT22;2227;47.810;8.810;2023-03-21T18:13:50;14.40;92.50
4429;DHT22;2227;47.810;8.810;2023-03-21T18:16:32;14.40;92.20
4429;DHT22;2227;47.810;8.810;2023-03-21T18:18:58;14.30;92.80
4429;DHT22;2227;47.810;8.810;2023-03-21T18:21:25;14.30;92.90
4429;DHT22;2227;47.810;8.810;2023-03-21T18:23:58;14.40;93.20
4429;DHT22;2227;47.810;8.810;2023-03-21T18:26:24;14.50;93.50
4429;DHT22;2227;47.810;8.810;2023-03-21T18:28:51;14.40;93.80
4429;DHT22;2227;47.810;8.810;2023-03-21T18:31:38;14.30;93.90
4429;DHT22;2227;47.810;8.810;2023-03-21T18:34:05;14.30;94.10
4429;DHT22;2227;47.810;8.810;2023-03-21T18:36:32;14.20;94.30
4429;DHT22;2227;47.810;8.810;2023-03-21T18:38:59;14.10;94.30
4429;DHT22;2227;47.810;8.810;2023-03-21T18:41:28;14.00;94.10
4429;DHT22;2227;47.810;8.810;2023-03-21T18:43:56;13.90;94.40
4429;DHT22;2227;47.810;8.810;2023-03-21T18:46:39;14.00;94.70
4429;DHT22;2227;47.810;8.810;2023-03-21T18:49:15;14.10;94.70
4429;DHT22;2227;47.810;8.810;2023-03-21T18:52:03;14.10;94.70
4429;DHT22;2227;47.810;8.810;2023-03-21T18:54:30;14.00;94.90
4429;DHT22;2227;47.810;8.810;2023-03-21T18:56:56;14.00;95.30
4429;DHT22;2227;47.810;8.810;2023-03-21T18:59:43;14.00;95.40
4429;DHT22;2227;47.810;8.810;2023-03-21T19:02:12;14.00;95.70
4429;DHT22;2227;47.810;8.810;2023-03-21T19:04:39;14.10;95.60
4429;DHT22;2227;47.810;8.810;2023-03-21T19:07:06;14.10;96.00
4429;DHT22;2227;47.810;8.810;2023-03-21T19:09:34;14.00;95.90
4429;DHT22;2227;47.810;8.810;2023-03-21T19:12:22;13.90;96.00
4429;DHT22;2227;47.810;8.810;2023-03-21T19:14:49;14.00;96.30
4429;DHT22;2227;47.810;8.810;2023-03-21T19:17:15;13.80;96.40
4429;DHT22;2227;47.810;8.810;2023-03-21T19:20:04;13.80;96.50
4429;DHT22;2227;47.810;8.810;2023-03-21T19:22:31;13.80;97.10
4429;DHT22;2227;47.810;8.810;2023-03-21T19:24:57;13.80;97.20
4429;DHT22;2227;47.810;8.810;2023-03-21T19:27:24;13.90;97.30
4429;DHT22;2227;47.810;8.810;2023-03-21T19:29:51;13.90;97.50
4429;DHT22;2227;47.810;8.810;2023-03-21T19:32:39;14.00;97.50
4429;DHT22;2227;47.810;8.810;2023-03-21T19:35:06;13.90;98.00
4429;DHT22;2227;47.810;8.810;2023-03-21T19:37:33;13.80;98.20
4429;DHT22;2227;47.810;8.810;2023-03-21T19:40:03;13.90;98.30
4429;DHT22;2227;47.810;8.810;2023-03-21T19:42:31;13.90;98.10
4429;DHT22;2227;47.810;8.810;2023-03-21T19:44:58;14.00;98.10
4429;DHT22;2227;47.810;8.810;2023-03-21T19:47:24;14.00;98.10
4429;DHT22;2227;47.810;8.810;2023-03-21T19:49:51;14.00;98.20
4429;DHT22;2227;47.810;8.810;2023-03-21T19:52:39;14.00;98.60
4429;DHT22;2227;47.810;8.810;2023-03-21T19:55:06;13.90;98.80
4429;DHT22;2227;47.810;8.810;2023-03-21T19:57:33;13.80;99.20
4429;DHT22;2227;47.810;8.810;2023-03-21T20:00:01;13.80;99.20
4429;DHT22;2227;47.810;8.810;2023-03-21T20:02:27;13.70;99.20
4429;DHT22;2227;47.810;8.810;2023-03-21T20:05:04;13.70;99.40
4429;DHT22;2227;47.810;8.810;2023-03-21T20:07:32;13.60;99.70
4429;DHT22;2227;47.810;8.810;2023-03-21T20:09:59;13.70;99.70
4429;DHT22;2227;47.810;8.810;2023-03-21T20:12:26;13.60;99.90
4429;DHT22;2227;47.810;8.810;2023-03-21T20:14:53;13.60;99.90
4429;DHT22;2227;47.810;8.810;2023-03-21T20:17:40;13.60;99.90
4429;DHT22;2227;47.810;8.810;2023-03-21T20:20:08;13.60;99.90
4429;DHT22;2227;47.810;8.810;2023-03-21T20:22:35;13.40;99.90
4429;DHT22;2227;47.810;8.810;2023-03-21T20:25:22;13.20;99.90
4429;DHT22;2227;47.810;8.810;2023-03-21T20:27:49;13.30;99.90
4429;DHT22;2227;47.810;8.810;2023-03-21T20:30:35;13.30;99.90
4429;DHT22;2227;47.810;8.810;2023-03-21T20:33:02;13.30;99.90
4429;DHT22;2227;47.810;8.810;2023-03-21T20:35:29;13.30;99.90
4429;DHT22;2227;47.810;8.810;2023-03-21T20:38:16;13.10;99.90
4429;DHT22;2227;47.810;8.810;2023-03-21T20:40:45;13.10;99.90
4429;DHT22;2227;47.810;8.810;2023-03-21T20:43:13;12.90;99.90
4429;DHT22;2227;47.810;8.810;2023-03-21T20:46:01;12.90;99.90
4429;DHT22;2227;47.810;8.810;2023-03-21T20:48:29;13.10;99.90
4429;DHT22;2227;47.810;8.810;2023-03-21T20:51:00;13.10;99.90
4429;DHT22;2227;47.810;8.810;2023-03-21T20:53:47;13.00;99.90
4429;DHT22;2227;47.810;8.810;2023-03-21T20:56:14;13.20;99.90
4429;DHT22;2227;47.810;8.810;2023-03-21T20:58:41;13.10;99.90
4429;DHT22;2227;47.810;8.810;2023-03-21T21:01:27;13.00;99.90
4429;DHT22;2227;47.810;8.810;2023-03-21T21:03:54;13.00;99.90
4429;DHT22;2227;47.810;8.810;2023-03-21T21:06:23;12.90;99.90
4429;DHT22;2227;47.810;8.810;2023-03-21T21:08:50;12.90;99.90
4429;DHT22;2227;47.810;8.810;2023-03-21T21:11:17;12.90;99.90
4429;DHT22;2227;47.810;8.810;2023-03-21T21:14:04;12.80;99.90
4429;DHT22;2227;47.810;8.810;2023-03-21T21:16:31;12.80;99.90
4429;DHT22;2227;47.810;8.810;2023-03-21T21:18:58;12.90;99.90
4429;DHT22;2227;47.810;8.810;2023-03-21T21:21:24;12.80;99.90
4429;DHT22;2227;47.810;8.810;2023-03-21T21:23:53;12.80;99.90
4429;DHT22;2227;47.810;8.810;2023-03-21T21:26:19;12.70;99.90
4429;DHT22;2227;47.810;8.810;2023-03-21T21:28:46;12.70;99.90
4429;DHT22;2227;47.810;8.810;2023-03-21T21:31:15;12.70;99.90
4429;DHT22;2227;47.810;8.810;2023-03-21T21:33:46;12.60;99.90
4429;DHT22;2227;47.810;8.810;2023-03-21T21:36:16;12.60;99.90
4429;DHT22;2227;47.810;8.810;2023-03-21T21:38:42;12.60;99.90
4429;DHT22;2227;47.810;8.810;2023-03-21T21:41:16;12.50;99.90
4429;DHT22;2227;47.810;8.810;2023-03-21T21:43:43;12.60;99.90
4429;DHT22;2227;47.810;8.810;2023-03-21T21:46:09;12.60;99.90
4429;DHT22;2227;47.810;8.810;2023-03-21T21:48:38;12.50;99.90
4429;DHT22;2227;47.810;8.810;2023-03-21T21:51:05;12.40;99.90
4429;DHT22;2227;47.810;8.810;2023-03-21T21:53:32;12.40;99.90
4429;DHT22;2227;47.810;8.810;2023-03-21T21:55:59;12.50;99.90
4429;DHT22;2227;47.810;8.810;2023-03-21T21:58:29;12.50;99.90
4429;DHT22;2227;47.810;8.810;2023-03-21T22:00:59;12.50;99.90
4429;DHT22;2227;47.810;8.810;2023-03-21T22:03:27;12.50;99.90
4429;DHT22;2227;47.810;8.810;2023-03-21T22:06:03;12.40;99.90
4429;DHT22;2227;47.810;8.810;2023-03-21T22:08:30;12.30;99.90
4429;DHT22;2227;47.810;8.810;2023-03-21T22:10:59;12.20;99.90